sensor_id;sensor_type;location;lat;lon;timestamp;P1;durP1;ratioP1;P2;durP2;ratioP2
59599;SDS011;61855;55.030;73.326;2022-10-16T00:01:23;33.88;;;14.80;;
59599;SDS011;61855;55.030;73.326;2022-10-16T00:03:56;26.60;;;14.48;;
59599;SDS011;61855;55.030;73.326;2022-10-16T00:06:23;27.38;;;15.10;;
59599;SDS011;61855;55.030;73.326;2022-10-16T00:08:51;30.40;;;14.65;;
59599;SDS011;61855;55.030;73.326;2022-10-16T00:11:25;25.98;;;13.43;;
59599;SDS011;61855;55.030;73.326;2022-10-16T00:13:57;26.80;;;14.75;;
59599;SDS011;61855;55.030;73.326;2022-10-16T00:16:25;31.05;;;14.95;;
59599;SDS011;61855;55.030;73.326;2022-10-16T00:18:52;32.70;;;15.48;;
59599;SDS011;61855;55.030;73.326;2022-10-16T00:21:20;26.80;;;14.32;;
59599;SDS011;61855;55.030;73.326;2022-10-16T00:23:54;27.40;;;15.52;;
59599;SDS011;61855;55.030;73.326;2022-10-16T00:26:27;35.95;;;15.88;;
59599;SDS011;61855;55.030;73.326;2022-10-16T00:28:55;29.70;;;16.35;;
59599;SDS011;61855;55.030;73.326;2022-10-16T00:31:22;34.13;;;16.63;;
59599;SDS011;61855;55.030;73.326;2022-10-16T00:33:49;34.05;;;16.85;;
59599;SDS011;61855;55.030;73.326;2022-10-16T00:36:16;33.00;;;17.35;;
59599;SDS011;61855;55.030;73.326;2022-10-16T00:38:44;37.72;;;17.95;;
59599;SDS011;61855;55.030;73.326;2022-10-16T00:41:12;37.08;;;19.45;;
59599;SDS011;61855;55.030;73.326;2022-10-16T00:43:42;46.70;;;21.45;;
59599;SDS011;61855;55.030;73.326;2022-10-16T00:46:17;38.88;;;20.20;;
59599;SDS011;61855;55.030;73.326;2022-10-16T00:51:28;42.40;;;20.42;;
59599;SDS011;61855;55.030;73.326;2022-10-16T00:54:25;37.50;;;19.20;;
59599;SDS011;61855;55.030;73.326;2022-10-16T00:56:53;39.30;;;19.67;;
59599;SDS011;61855;55.030;73.326;2022-10-16T00:59:24;42.72;;;20.75;;
59599;SDS011;61855;55.030;73.326;2022-10-16T01:01:53;36.35;;;20.35;;
59599;SDS011;61855;55.030;73.326;2022-10-16T01:04:20;33.75;;;19.33;;
59599;SDS011;61855;55.030;73.326;2022-10-16T01:09:51;36.50;;;19.17;;
59599;SDS011;61855;55.030;73.326;2022-10-16T01:15:25;29.95;;;17.02;;
59599;SDS011;61855;55.030;73.326;2022-10-16T01:21:02;35.63;;;18.58;;
59599;SDS011;61855;55.030;73.326;2022-10-16T01:23:48;29.70;;;16.80;;
59599;SDS011;61855;55.030;73.326;2022-10-16T01:31:40;30.02;;;17.23;;
59599;SDS011;61855;55.030;73.326;2022-10-16T01:34:12;31.15;;;17.67;;
59599;SDS011;61855;55.030;73.326;2022-10-16T01:36:45;29.10;;;16.27;;
59599;SDS011;61855;55.030;73.326;2022-10-16T01:39:17;29.52;;;17.77;;
59599;SDS011;61855;55.030;73.326;2022-10-16T01:41:49;35.22;;;18.27;;
59599;SDS011;61855;55.030;73.326;2022-10-16T01:44:24;32.58;;;17.60;;
59599;SDS011;61855;55.030;73.326;2022-10-16T01:46:54;27.02;;;16.63;;
59599;SDS011;61855;55.030;73.326;2022-10-16T01:49:21;29.95;;;16.10;;
59599;SDS011;61855;55.030;73.326;2022-10-16T01:51:52;27.63;;;14.32;;
59599;SDS011;61855;55.030;73.326;2022-10-16T01:54:21;27.75;;;16.67;;
59599;SDS011;61855;55.030;73.326;2022-10-16T01:56:51;32.83;;;15.93;;
59599;SDS011;61855;55.030;73.326;2022-10-16T01:59:20;26.17;;;16.52;;
59599;SDS011;61855;55.030;73.326;2022-10-16T02:01:51;29.70;;;15.63;;
59599;SDS011;61855;55.030;73.326;2022-10-16T02:04:30;26.90;;;17.25;;
59599;SDS011;61855;55.030;73.326;2022-10-16T02:06:59;26.85;;;15.95;;
59599;SDS011;61855;55.030;73.326;2022-10-16T02:09:26;27.02;;;15.85;;
59599;SDS011;61855;55.030;73.326;2022-10-16T02:11:55;28.35;;;14.63;;
59599;SDS011;61855;55.030;73.326;2022-10-16T02:14:25;25.27;;;14.27;;
59599;SDS011;61855;55.030;73.326;2022-10-16T02:16:52;25.08;;;14.32;;
59599;SDS011;61855;55.030;73.326;2022-10-16T02:19:18;24.45;;;14.35;;
59599;SDS011;61855;55.030;73.326;2022-10-16T02:21:57;23.92;;;13.82;;
59599;SDS011;61855;55.030;73.326;2022-10-16T02:24:33;23.33;;;13.15;;
59599;SDS011;61855;55.030;73.326;2022-10-16T02:27:21;24.50;;;13.35;;
59599;SDS011;61855;55.030;73.326;2022-10-16T02:29:59;27.70;;;14.32;;
59599;SDS011;61855;55.030;73.326;2022-10-16T02:32:35;24.13;;;13.43;;
59599;SDS011;61855;55.030;73.326;2022-10-16T02:35:04;22.63;;;12.25;;
59599;SDS011;61855;55.030;73.326;2022-10-16T02:37:36;22.90;;;12.45;;
59599;SDS011;61855;55.030;73.326;2022-10-16T02:40:10;22.45;;;12.40;;
59599;SDS011;61855;55.030;73.326;2022-10-16T02:42:38;24.00;;;12.30;;
59599;SDS011;61855;55.030;73.326;2022-10-16T02:45:05;22.30;;;11.90;;
59599;SDS011;61855;55.030;73.326;2022-10-16T02:47:32;26.42;;;14.05;;
59599;SDS011;61855;55.030;73.326;2022-10-16T02:49:58;24.00;;;12.65;;
59599;SDS011;61855;55.030;73.326;2022-10-16T02:52:24;29.15;;;13.18;;
59599;SDS011;61855;55.030;73.326;2022-10-16T02:54:51;29.67;;;14.05;;
59599;SDS011;61855;55.030;73.326;2022-10-16T02:57:18;23.60;;;13.45;;
59599;SDS011;61855;55.030;73.326;2022-10-16T02:59:45;23.50;;;13.48;;
59599;SDS011;61855;55.030;73.326;2022-10-16T03:02:11;24.23;;;14.07;;
59599;SDS011;61855;55.030;73.326;2022-10-16T03:04:37;25.92;;;14.20;;
59599;SDS011;61855;55.030;73.326;2022-10-16T03:07:03;28.80;;;14.13;;
59599;SDS011;61855;55.030;73.326;2022-10-16T03:09:30;28.55;;;14.40;;
59599;SDS011;61855;55.030;73.326;2022-10-16T03:11:56;36.15;;;14.50;;
59599;SDS011;61855;55.030;73.326;2022-10-16T03:14:22;25.75;;;14.07;;
59599;SDS011;61855;55.030;73.326;2022-10-16T03:16:48;25.83;;;14.50;;
59599;SDS011;61855;55.030;73.326;2022-10-16T03:19:16;24.63;;;13.90;;
59599;SDS011;61855;55.030;73.326;2022-10-16T03:21:44;28.90;;;14.65;;
59599;SDS011;61855;55.030;73.326;2022-10-16T03:24:10;22.65;;;13.93;;
59599;SDS011;61855;55.030;73.326;2022-10-16T03:26:39;24.52;;;13.68;;
59599;SDS011;61855;55.030;73.326;2022-10-16T03:29:05;27.05;;;16.17;;
59599;SDS011;61855;55.030;73.326;2022-10-16T03:31:32;25.30;;;14.32;;
59599;SDS011;61855;55.030;73.326;2022-10-16T03:33:58;25.27;;;14.70;;
59599;SDS011;61855;55.030;73.326;2022-10-16T03:36:24;23.00;;;14.32;;
59599;SDS011;61855;55.030;73.326;2022-10-16T03:38:50;22.35;;;13.15;;
59599;SDS011;61855;55.030;73.326;2022-10-16T03:41:17;32.50;;;15.13;;
59599;SDS011;61855;55.030;73.326;2022-10-16T03:43:43;25.27;;;14.40;;
59599;SDS011;61855;55.030;73.326;2022-10-16T03:46:09;37.25;;;20.00;;
59599;SDS011;61855;55.030;73.326;2022-10-16T03:48:35;38.50;;;17.02;;
59599;SDS011;61855;55.030;73.326;2022-10-16T03:51:01;35.17;;;18.02;;
59599;SDS011;61855;55.030;73.326;2022-10-16T03:53:27;36.50;;;16.65;;
59599;SDS011;61855;55.030;73.326;2022-10-16T03:56:03;42.42;;;16.02;;
59599;SDS011;61855;55.030;73.326;2022-10-16T03:58:30;30.95;;;14.38;;
59599;SDS011;61855;55.030;73.326;2022-10-16T04:00:56;37.28;;;15.32;;
59599;SDS011;61855;55.030;73.326;2022-10-16T04:03:22;26.20;;;14.63;;
59599;SDS011;61855;55.030;73.326;2022-10-16T04:05:49;29.05;;;13.93;;
59599;SDS011;61855;55.030;73.326;2022-10-16T04:08:15;31.63;;;14.68;;
59599;SDS011;61855;55.030;73.326;2022-10-16T04:10:42;27.58;;;13.60;;
59599;SDS011;61855;55.030;73.326;2022-10-16T04:13:09;26.88;;;12.55;;
59599;SDS011;61855;55.030;73.326;2022-10-16T04:15:35;23.50;;;13.00;;
59599;SDS011;61855;55.030;73.326;2022-10-16T04:18:03;28.27;;;12.80;;
59599;SDS011;61855;55.030;73.326;2022-10-16T04:20:29;27.63;;;13.35;;
59599;SDS011;61855;55.030;73.326;2022-10-16T04:22:56;25.42;;;12.15;;
59599;SDS011;61855;55.030;73.326;2022-10-16T04:25:22;27.63;;;12.60;;
59599;SDS011;61855;55.030;73.326;2022-10-16T04:27:48;37.35;;;13.20;;
59599;SDS011;61855;55.030;73.326;2022-10-16T04:30:16;27.15;;;12.43;;
59599;SDS011;61855;55.030;73.326;2022-10-16T04:32:42;26.67;;;12.23;;
59599;SDS011;61855;55.030;73.326;2022-10-16T04:35:19;22.90;;;11.90;;
59599;SDS011;61855;55.030;73.326;2022-10-16T04:37:46;22.88;;;11.15;;
59599;SDS011;61855;55.030;73.326;2022-10-16T04:40:12;23.70;;;10.60;;
59599;SDS011;61855;55.030;73.326;2022-10-16T04:42:46;23.88;;;11.05;;
59599;SDS011;61855;55.030;73.326;2022-10-16T04:45:12;22.45;;;10.63;;
59599;SDS011;61855;55.030;73.326;2022-10-16T04:47:39;22.48;;;11.30;;
59599;SDS011;61855;55.030;73.326;2022-10-16T04:50:11;23.60;;;11.27;;
59599;SDS011;61855;55.030;73.326;2022-10-16T04:52:37;20.33;;;10.68;;
59599;SDS011;61855;55.030;73.326;2022-10-16T04:55:03;27.75;;;11.43;;
59599;SDS011;61855;55.030;73.326;2022-10-16T04:57:30;27.90;;;11.32;;
59599;SDS011;61855;55.030;73.326;2022-10-16T05:00:04;26.90;;;12.32;;
59599;SDS011;61855;55.030;73.326;2022-10-16T05:02:31;24.30;;;12.45;;
59599;SDS011;61855;55.030;73.326;2022-10-16T05:04:57;30.20;;;12.27;;
59599;SDS011;61855;55.030;73.326;2022-10-16T05:07:24;25.70;;;12.57;;
59599;SDS011;61855;55.030;73.326;2022-10-16T05:09:51;27.02;;;12.07;;
59599;SDS011;61855;55.030;73.326;2022-10-16T05:12:18;27.23;;;13.40;;
59599;SDS011;61855;55.030;73.326;2022-10-16T05:14:44;27.48;;;12.77;;
59599;SDS011;61855;55.030;73.326;2022-10-16T05:17:19;29.13;;;12.98;;
59599;SDS011;61855;55.030;73.326;2022-10-16T05:19:46;27.10;;;12.50;;
59599;SDS011;61855;55.030;73.326;2022-10-16T05:22:12;23.25;;;12.93;;
59599;SDS011;61855;55.030;73.326;2022-10-16T05:24:39;28.75;;;13.07;;
59599;SDS011;61855;55.030;73.326;2022-10-16T05:27:05;30.27;;;13.57;;
59599;SDS011;61855;55.030;73.326;2022-10-16T05:29:32;28.30;;;13.65;;
59599;SDS011;61855;55.030;73.326;2022-10-16T05:31:58;26.42;;;13.27;;
59599;SDS011;61855;55.030;73.326;2022-10-16T05:34:24;30.90;;;14.20;;
59599;SDS011;61855;55.030;73.326;2022-10-16T05:36:50;31.08;;;13.95;;
59599;SDS011;61855;55.030;73.326;2022-10-16T05:39:16;29.75;;;14.68;;
59599;SDS011;61855;55.030;73.326;2022-10-16T05:41:53;37.58;;;15.27;;
59599;SDS011;61855;55.030;73.326;2022-10-16T05:44:23;38.97;;;15.32;;
59599;SDS011;61855;55.030;73.326;2022-10-16T05:46:51;27.73;;;14.80;;
59599;SDS011;61855;55.030;73.326;2022-10-16T05:49:22;26.88;;;14.48;;
59599;SDS011;61855;55.030;73.326;2022-10-16T05:51:48;34.17;;;13.98;;
59599;SDS011;61855;55.030;73.326;2022-10-16T05:54:19;25.85;;;12.88;;
59599;SDS011;61855;55.030;73.326;2022-10-16T05:56:45;31.30;;;13.93;;
59599;SDS011;61855;55.030;73.326;2022-10-16T05:59:11;27.08;;;13.80;;
59599;SDS011;61855;55.030;73.326;2022-10-16T06:01:38;23.67;;;13.07;;
59599;SDS011;61855;55.030;73.326;2022-10-16T06:04:04;31.67;;;14.65;;
59599;SDS011;61855;55.030;73.326;2022-10-16T06:06:30;29.75;;;12.60;;
59599;SDS011;61855;55.030;73.326;2022-10-16T06:08:56;26.17;;;10.65;;
59599;SDS011;61855;55.030;73.326;2022-10-16T06:11:24;14.77;;;6.60;;
59599;SDS011;61855;55.030;73.326;2022-10-16T06:13:53;10.30;;;5.63;;
59599;SDS011;61855;55.030;73.326;2022-10-16T06:16:22;9.50;;;5.70;;
59599;SDS011;61855;55.030;73.326;2022-10-16T06:18:52;15.07;;;7.68;;
59599;SDS011;61855;55.030;73.326;2022-10-16T06:21:21;12.43;;;6.30;;
59599;SDS011;61855;55.030;73.326;2022-10-16T06:23:51;12.60;;;7.28;;
59599;SDS011;61855;55.030;73.326;2022-10-16T06:26:19;14.13;;;7.15;;
59599;SDS011;61855;55.030;73.326;2022-10-16T06:28:47;12.55;;;6.80;;
59599;SDS011;61855;55.030;73.326;2022-10-16T06:31:16;13.77;;;6.78;;
59599;SDS011;61855;55.030;73.326;2022-10-16T06:33:50;14.60;;;7.38;;
59599;SDS011;61855;55.030;73.326;2022-10-16T06:36:17;13.40;;;6.60;;
59599;SDS011;61855;55.030;73.326;2022-10-16T06:38:43;9.88;;;5.90;;
59599;SDS011;61855;55.030;73.326;2022-10-16T06:41:11;11.93;;;6.55;;
59599;SDS011;61855;55.030;73.326;2022-10-16T06:43:39;13.23;;;6.47;;
59599;SDS011;61855;55.030;73.326;2022-10-16T06:46:18;9.63;;;5.10;;
59599;SDS011;61855;55.030;73.326;2022-10-16T06:48:46;25.98;;;13.43;;
59599;SDS011;61855;55.030;73.326;2022-10-16T06:51:16;14.15;;;6.00;;
59599;SDS011;61855;55.030;73.326;2022-10-16T06:53:49;12.23;;;6.13;;
59599;SDS011;61855;55.030;73.326;2022-10-16T06:56:18;15.27;;;6.10;;
59599;SDS011;61855;55.030;73.326;2022-10-16T06:58:46;10.77;;;6.47;;
59599;SDS011;61855;55.030;73.326;2022-10-16T07:01:18;17.27;;;6.60;;
59599;SDS011;61855;55.030;73.326;2022-10-16T07:03:46;15.25;;;6.38;;
59599;SDS011;61855;55.030;73.326;2022-10-16T07:06:24;12.32;;;6.38;;
59599;SDS011;61855;55.030;73.326;2022-10-16T07:08:53;13.27;;;6.53;;
59599;SDS011;61855;55.030;73.326;2022-10-16T07:11:20;18.33;;;6.72;;
59599;SDS011;61855;55.030;73.326;2022-10-16T07:13:47;11.25;;;6.07;;
59599;SDS011;61855;55.030;73.326;2022-10-16T07:16:20;14.18;;;6.13;;
59599;SDS011;61855;55.030;73.326;2022-10-16T07:18:48;15.50;;;6.22;;
59599;SDS011;61855;55.030;73.326;2022-10-16T07:21:17;17.00;;;6.55;;
59599;SDS011;61855;55.030;73.326;2022-10-16T07:23:51;17.73;;;6.72;;
59599;SDS011;61855;55.030;73.326;2022-10-16T07:26:30;10.85;;;6.20;;
59599;SDS011;61855;55.030;73.326;2022-10-16T07:28:58;10.38;;;6.28;;
59599;SDS011;61855;55.030;73.326;2022-10-16T07:31:24;11.27;;;6.43;;
59599;SDS011;61855;55.030;73.326;2022-10-16T07:33:50;12.20;;;6.43;;
59599;SDS011;61855;55.030;73.326;2022-10-16T07:36:21;10.60;;;6.35;;
59599;SDS011;61855;55.030;73.326;2022-10-16T07:38:48;15.68;;;6.53;;
59599;SDS011;61855;55.030;73.326;2022-10-16T07:41:15;15.18;;;7.38;;
59599;SDS011;61855;55.030;73.326;2022-10-16T07:43:47;16.73;;;8.57;;
59599;SDS011;61855;55.030;73.326;2022-10-16T07:46:14;17.92;;;8.60;;
59599;SDS011;61855;55.030;73.326;2022-10-16T07:48:42;16.88;;;8.63;;
59599;SDS011;61855;55.030;73.326;2022-10-16T07:51:11;15.60;;;8.45;;
59599;SDS011;61855;55.030;73.326;2022-10-16T07:53:38;18.70;;;8.85;;
59599;SDS011;61855;55.030;73.326;2022-10-16T07:56:05;26.25;;;14.50;;
59599;SDS011;61855;55.030;73.326;2022-10-16T07:58:33;20.33;;;8.02;;
59599;SDS011;61855;55.030;73.326;2022-10-16T08:01:06;20.48;;;9.30;;
59599;SDS011;61855;55.030;73.326;2022-10-16T08:03:34;22.42;;;9.40;;
59599;SDS011;61855;55.030;73.326;2022-10-16T08:06:00;16.75;;;9.27;;
59599;SDS011;61855;55.030;73.326;2022-10-16T08:08:27;22.42;;;9.93;;
59599;SDS011;61855;55.030;73.326;2022-10-16T08:10:54;18.80;;;9.90;;
59599;SDS011;61855;55.030;73.326;2022-10-16T08:13:20;26.45;;;10.90;;
59599;SDS011;61855;55.030;73.326;2022-10-16T08:15:51;28.63;;;11.55;;
59599;SDS011;61855;55.030;73.326;2022-10-16T08:18:19;31.92;;;10.95;;
59599;SDS011;61855;55.030;73.326;2022-10-16T08:20:45;21.90;;;10.30;;
59599;SDS011;61855;55.030;73.326;2022-10-16T08:23:12;22.67;;;9.25;;
59599;SDS011;61855;55.030;73.326;2022-10-16T08:25:39;26.55;;;9.07;;
59599;SDS011;61855;55.030;73.326;2022-10-16T08:28:10;24.13;;;8.73;;
59599;SDS011;61855;55.030;73.326;2022-10-16T08:30:36;22.17;;;8.50;;
59599;SDS011;61855;55.030;73.326;2022-10-16T08:33:02;22.35;;;7.68;;
59599;SDS011;61855;55.030;73.326;2022-10-16T08:35:29;16.00;;;7.80;;
59599;SDS011;61855;55.030;73.326;2022-10-16T08:37:55;19.65;;;8.10;;
59599;SDS011;61855;55.030;73.326;2022-10-16T08:40:25;20.25;;;9.00;;
59599;SDS011;61855;55.030;73.326;2022-10-16T08:50:54;19.50;;;12.32;;
59599;SDS011;61855;55.030;73.326;2022-10-16T08:53:54;21.55;;;12.75;;
59599;SDS011;61855;55.030;73.326;2022-10-16T08:56:18;26.63;;;11.23;;
59599;SDS011;61855;55.030;73.326;2022-10-16T08:58:45;16.38;;;9.45;;
59599;SDS011;61855;55.030;73.326;2022-10-16T09:01:13;16.75;;;9.50;;
59599;SDS011;61855;55.030;73.326;2022-10-16T09:09:10;14.35;;;7.95;;
59599;SDS011;61855;55.030;73.326;2022-10-16T09:25:36;12.82;;;6.10;;
59599;SDS011;61855;55.030;73.326;2022-10-16T09:28:07;9.98;;;5.22;;
59599;SDS011;61855;55.030;73.326;2022-10-16T09:30:35;8.68;;;5.88;;
59599;SDS011;61855;55.030;73.326;2022-10-16T09:33:03;9.00;;;5.75;;
59599;SDS011;61855;55.030;73.326;2022-10-16T09:35:44;8.45;;;6.07;;
59599;SDS011;61855;55.030;73.326;2022-10-16T09:40:50;11.88;;;7.18;;
59599;SDS011;61855;55.030;73.326;2022-10-16T09:49:24;12.45;;;7.75;;
59599;SDS011;61855;55.030;73.326;2022-10-16T09:52:06;17.93;;;9.40;;
59599;SDS011;61855;55.030;73.326;2022-10-16T09:57:14;17.17;;;9.32;;
59599;SDS011;61855;55.030;73.326;2022-10-16T09:59:47;12.27;;;6.88;;
59599;SDS011;61855;55.030;73.326;2022-10-16T10:02:16;13.85;;;7.57;;
59599;SDS011;61855;55.030;73.326;2022-10-16T10:04:51;13.25;;;8.70;;
59599;SDS011;61855;55.030;73.326;2022-10-16T10:07:30;15.43;;;8.07;;
59599;SDS011;61855;55.030;73.326;2022-10-16T10:10:02;16.75;;;8.52;;
59599;SDS011;61855;55.030;73.326;2022-10-16T10:12:32;12.10;;;8.65;;
59599;SDS011;61855;55.030;73.326;2022-10-16T10:15:07;10.93;;;6.63;;
59599;SDS011;61855;55.030;73.326;2022-10-16T10:17:47;9.13;;;5.75;;
59599;SDS011;61855;55.030;73.326;2022-10-16T10:20:28;8.05;;;5.18;;
59599;SDS011;61855;55.030;73.326;2022-10-16T10:22:55;9.48;;;5.03;;
59599;SDS011;61855;55.030;73.326;2022-10-16T10:25:39;9.77;;;5.43;;
59599;SDS011;61855;55.030;73.326;2022-10-16T10:31:25;9.73;;;4.68;;
59599;SDS011;61855;55.030;73.326;2022-10-16T10:39:43;15.25;;;6.78;;
59599;SDS011;61855;55.030;73.326;2022-10-16T10:45:33;28.42;;;12.57;;
59599;SDS011;61855;55.030;73.326;2022-10-16T10:48:17;35.90;;;9.43;;
59599;SDS011;61855;55.030;73.326;2022-10-16T10:50:49;28.57;;;11.13;;
59599;SDS011;61855;55.030;73.326;2022-10-16T10:56:24;14.32;;;5.10;;
59599;SDS011;61855;55.030;73.326;2022-10-16T10:59:16;16.63;;;7.32;;
59599;SDS011;61855;55.030;73.326;2022-10-16T11:07:25;32.88;;;17.98;;
59599;SDS011;61855;55.030;73.326;2022-10-16T11:09:56;21.80;;;13.57;;
59599;SDS011;61855;55.030;73.326;2022-10-16T11:12:29;18.30;;;10.30;;
59599;SDS011;61855;55.030;73.326;2022-10-16T11:15:23;23.20;;;14.57;;
59599;SDS011;61855;55.030;73.326;2022-10-16T11:20:34;10.70;;;6.18;;
59599;SDS011;61855;55.030;73.326;2022-10-16T11:23:10;45.30;;;24.40;;
59599;SDS011;61855;55.030;73.326;2022-10-16T11:25:48;22.58;;;11.13;;
59599;SDS011;61855;55.030;73.326;2022-10-16T11:29:17;12.25;;;6.50;;
59599;SDS011;61855;55.030;73.326;2022-10-16T11:31:24;22.80;;;12.18;;
59599;SDS011;61855;55.030;73.326;2022-10-16T11:34:27;25.33;;;11.35;;
59599;SDS011;61855;55.030;73.326;2022-10-16T11:37:05;14.73;;;7.28;;
59599;SDS011;61855;55.030;73.326;2022-10-16T11:39:38;24.67;;;10.13;;
59599;SDS011;61855;55.030;73.326;2022-10-16T11:42:13;22.33;;;11.40;;
59599;SDS011;61855;55.030;73.326;2022-10-16T11:47:44;27.80;;;14.43;;
59599;SDS011;61855;55.030;73.326;2022-10-16T11:55:53;15.40;;;7.38;;
59599;SDS011;61855;55.030;73.326;2022-10-16T12:03:46;22.95;;;10.40;;
59599;SDS011;61855;55.030;73.326;2022-10-16T12:06:34;24.83;;;11.55;;
59599;SDS011;61855;55.030;73.326;2022-10-16T12:09:01;23.58;;;11.20;;
59599;SDS011;61855;55.030;73.326;2022-10-16T12:14:06;17.38;;;8.02;;
59599;SDS011;61855;55.030;73.326;2022-10-16T12:19:28;14.13;;;8.20;;
59599;SDS011;61855;55.030;73.326;2022-10-16T12:22:03;16.88;;;7.82;;
59599;SDS011;61855;55.030;73.326;2022-10-16T12:24:32;17.95;;;9.20;;
59599;SDS011;61855;55.030;73.326;2022-10-16T12:27:31;17.65;;;9.15;;
59599;SDS011;61855;55.030;73.326;2022-10-16T12:29:59;27.20;;;8.98;;
59599;SDS011;61855;55.030;73.326;2022-10-16T12:32:31;18.90;;;10.00;;
59599;SDS011;61855;55.030;73.326;2022-10-16T12:35:05;20.67;;;10.55;;
59599;SDS011;61855;55.030;73.326;2022-10-16T12:37:43;25.92;;;14.02;;
59599;SDS011;61855;55.030;73.326;2022-10-16T12:42:42;35.53;;;18.15;;
59599;SDS011;61855;55.030;73.326;2022-10-16T12:48:18;41.40;;;20.40;;
59599;SDS011;61855;55.030;73.326;2022-10-16T12:50:48;41.35;;;22.42;;
59599;SDS011;61855;55.030;73.326;2022-10-16T12:53:19;50.38;;;28.20;;
59599;SDS011;61855;55.030;73.326;2022-10-16T12:58:45;60.42;;;32.75;;
59599;SDS011;61855;55.030;73.326;2022-10-16T13:01:34;50.10;;;26.73;;
59599;SDS011;61855;55.030;73.326;2022-10-16T13:29:00;42.53;;;23.90;;
59599;SDS011;61855;55.030;73.326;2022-10-16T13:31:27;39.72;;;23.00;;
59599;SDS011;61855;55.030;73.326;2022-10-16T13:33:55;45.33;;;23.42;;
59599;SDS011;61855;55.030;73.326;2022-10-16T13:38:59;39.97;;;22.88;;
59599;SDS011;61855;55.030;73.326;2022-10-16T13:41:42;45.08;;;25.02;;
59599;SDS011;61855;55.030;73.326;2022-10-16T13:44:14;46.63;;;25.55;;
59599;SDS011;61855;55.030;73.326;2022-10-16T13:46:44;46.65;;;25.70;;
59599;SDS011;61855;55.030;73.326;2022-10-16T13:49:14;45.33;;;26.75;;
59599;SDS011;61855;55.030;73.326;2022-10-16T13:51:47;50.38;;;26.80;;
59599;SDS011;61855;55.030;73.326;2022-10-16T13:54:20;48.70;;;23.42;;
59599;SDS011;61855;55.030;73.326;2022-10-16T13:56:46;42.33;;;22.23;;
59599;SDS011;61855;55.030;73.326;2022-10-16T14:04:47;37.13;;;20.45;;
59599;SDS011;61855;55.030;73.326;2022-10-16T14:07:24;36.90;;;20.38;;
59599;SDS011;61855;55.030;73.326;2022-10-16T14:13:14;40.10;;;21.20;;
59599;SDS011;61855;55.030;73.326;2022-10-16T14:15:50;37.53;;;21.25;;
59599;SDS011;61855;55.030;73.326;2022-10-16T14:18:21;37.97;;;21.67;;
59599;SDS011;61855;55.030;73.326;2022-10-16T14:21:04;35.58;;;21.20;;
59599;SDS011;61855;55.030;73.326;2022-10-16T14:23:38;36.47;;;21.05;;
59599;SDS011;61855;55.030;73.326;2022-10-16T14:26:15;36.30;;;20.38;;
59599;SDS011;61855;55.030;73.326;2022-10-16T14:29:00;38.25;;;20.63;;
59599;SDS011;61855;55.030;73.326;2022-10-16T14:34:34;35.42;;;20.80;;
59599;SDS011;61855;55.030;73.326;2022-10-16T14:37:28;34.97;;;22.95;;
59599;SDS011;61855;55.030;73.326;2022-10-16T14:39:56;39.85;;;23.83;;
59599;SDS011;61855;55.030;73.326;2022-10-16T14:42:24;39.80;;;23.27;;
59599;SDS011;61855;55.030;73.326;2022-10-16T14:44:52;48.47;;;24.27;;
59599;SDS011;61855;55.030;73.326;2022-10-16T14:47:26;48.87;;;28.33;;
59599;SDS011;61855;55.030;73.326;2022-10-16T14:49:54;53.25;;;26.15;;
59599;SDS011;61855;55.030;73.326;2022-10-16T14:52:23;46.60;;;26.33;;
59599;SDS011;61855;55.030;73.326;2022-10-16T14:54:49;43.38;;;25.67;;
59599;SDS011;61855;55.030;73.326;2022-10-16T14:57:19;45.78;;;25.05;;
59599;SDS011;61855;55.030;73.326;2022-10-16T14:59:48;42.40;;;25.58;;
59599;SDS011;61855;55.030;73.326;2022-10-16T15:04:45;81.78;;;47.25;;
59599;SDS011;61855;55.030;73.326;2022-10-16T15:07:12;41.58;;;25.73;;
59599;SDS011;61855;55.030;73.326;2022-10-16T15:09:43;43.55;;;25.38;;
59599;SDS011;61855;55.030;73.326;2022-10-16T15:12:09;43.63;;;26.75;;
59599;SDS011;61855;55.030;73.326;2022-10-16T15:14:35;42.72;;;24.80;;
59599;SDS011;61855;55.030;73.326;2022-10-16T15:17:04;42.08;;;24.17;;
59599;SDS011;61855;55.030;73.326;2022-10-16T15:19:30;44.28;;;22.75;;
59599;SDS011;61855;55.030;73.326;2022-10-16T15:21:56;40.17;;;20.95;;
59599;SDS011;61855;55.030;73.326;2022-10-16T15:24:33;37.85;;;20.23;;
59599;SDS011;61855;55.030;73.326;2022-10-16T15:26:59;33.45;;;20.48;;
59599;SDS011;61855;55.030;73.326;2022-10-16T15:29:35;32.80;;;20.00;;
59599;SDS011;61855;55.030;73.326;2022-10-16T15:32:01;36.15;;;21.90;;
59599;SDS011;61855;55.030;73.326;2022-10-16T15:34:28;36.15;;;22.30;;
59599;SDS011;61855;55.030;73.326;2022-10-16T15:36:54;40.28;;;23.98;;
59599;SDS011;61855;55.030;73.326;2022-10-16T15:39:23;46.88;;;26.05;;
59599;SDS011;61855;55.030;73.326;2022-10-16T15:41:50;44.58;;;26.30;;
59599;SDS011;61855;55.030;73.326;2022-10-16T15:44:19;45.63;;;28.05;;
59599;SDS011;61855;55.030;73.326;2022-10-16T15:46:47;42.10;;;27.38;;
59599;SDS011;61855;55.030;73.326;2022-10-16T15:49:13;47.28;;;27.27;;
59599;SDS011;61855;55.030;73.326;2022-10-16T15:51:39;51.08;;;29.05;;
59599;SDS011;61855;55.030;73.326;2022-10-16T15:54:07;46.40;;;31.08;;
59599;SDS011;61855;55.030;73.326;2022-10-16T15:56:34;52.45;;;31.88;;
59599;SDS011;61855;55.030;73.326;2022-10-16T15:59:02;52.25;;;33.08;;
59599;SDS011;61855;55.030;73.326;2022-10-16T16:01:34;54.00;;;30.48;;
59599;SDS011;61855;55.030;73.326;2022-10-16T16:04:00;46.40;;;28.80;;
59599;SDS011;61855;55.030;73.326;2022-10-16T16:06:26;44.55;;;28.17;;
59599;SDS011;61855;55.030;73.326;2022-10-16T16:08:52;47.63;;;27.92;;
59599;SDS011;61855;55.030;73.326;2022-10-16T16:11:19;44.88;;;29.17;;
59599;SDS011;61855;55.030;73.326;2022-10-16T16:13:45;50.30;;;28.30;;
59599;SDS011;61855;55.030;73.326;2022-10-16T16:16:13;56.20;;;28.33;;
59599;SDS011;61855;55.030;73.326;2022-10-16T16:18:41;39.58;;;23.48;;
59599;SDS011;61855;55.030;73.326;2022-10-16T16:21:08;37.90;;;23.58;;
59599;SDS011;61855;55.030;73.326;2022-10-16T16:23:36;39.25;;;24.73;;
59599;SDS011;61855;55.030;73.326;2022-10-16T16:26:07;46.83;;;24.85;;
59599;SDS011;61855;55.030;73.326;2022-10-16T16:28:38;49.35;;;26.90;;
59599;SDS011;61855;55.030;73.326;2022-10-16T16:31:16;41.92;;;26.67;;
59599;SDS011;61855;55.030;73.326;2022-10-16T16:33:44;48.15;;;28.10;;
59599;SDS011;61855;55.030;73.326;2022-10-16T16:36:11;54.30;;;29.90;;
59599;SDS011;61855;55.030;73.326;2022-10-16T16:38:37;48.63;;;28.85;;
59599;SDS011;61855;55.030;73.326;2022-10-16T16:41:13;45.20;;;28.15;;
59599;SDS011;61855;55.030;73.326;2022-10-16T16:43:50;45.60;;;28.73;;
59599;SDS011;61855;55.030;73.326;2022-10-16T16:46:20;48.70;;;29.38;;
59599;SDS011;61855;55.030;73.326;2022-10-16T16:48:46;42.85;;;26.08;;
59599;SDS011;61855;55.030;73.326;2022-10-16T16:51:16;47.25;;;26.40;;
59599;SDS011;61855;55.030;73.326;2022-10-16T16:53:46;45.28;;;26.63;;
59599;SDS011;61855;55.030;73.326;2022-10-16T16:56:15;46.20;;;28.38;;
59599;SDS011;61855;55.030;73.326;2022-10-16T16:58:44;55.25;;;28.27;;
59599;SDS011;61855;55.030;73.326;2022-10-16T17:01:12;58.70;;;32.30;;